createdAt,value
2023-03-16T00:02:03.392Z,1.98
2023-03-16T00:04:30.587Z,3.45
2023-03-16T00:06:57.752Z,2.42
2023-03-16T00:09:30.804Z,2.10
2023-03-16T00:11:58.933Z,2.37
2023-03-16T00:14:26.461Z,2.25
2023-03-16T00:16:53.359Z,2.20
2023-03-16T00:19:22.757Z,2.10
2023-03-16T00:21:52.633Z,2.60
2023-03-16T00:24:20.273Z,2.60
2023-03-16T00:26:47.603Z,2.60
2023-03-16T00:29:14.556Z,2.78
2023-03-16T00:31:45.017Z,2.60
2023-03-16T00:34:12.330Z,2.90
2023-03-16T00:36:38.886Z,2.87
2023-03-16T00:39:06.780Z,2.63
2023-03-16T00:41:37.791Z,3.13
2023-03-16T00:44:05.477Z,3.03
2023-03-16T00:46:32.041Z,2.67
2023-03-16T00:48:58.430Z,2.77
2023-03-16T00:51:24.801Z,3.17
2023-03-16T00:53:51.241Z,3.30
2023-03-16T00:56:17.682Z,3.00
2023-03-16T00:58:44.472Z,3.30
2023-03-16T01:01:17.142Z,2.83
2023-03-16T01:03:43.646Z,2.90
2023-03-16T01:06:13.481Z,2.78
2023-03-16T01:08:40.770Z,2.85
2023-03-16T01:11:10.719Z,3.15
2023-03-16T01:13:38.446Z,3.17
2023-03-16T01:16:05.784Z,2.72
2023-03-16T01:18:35.321Z,3.38
2023-03-16T01:21:03.559Z,3.42
2023-03-16T01:23:31.281Z,2.67
2023-03-16T01:25:58.619Z,3.27
2023-03-16T01:28:27.522Z,3.10
2023-03-16T01:30:57.676Z,3.20
2023-03-16T01:33:26.642Z,3.20
2023-03-16T01:36:14.217Z,3.40
2023-03-16T01:38:40.768Z,2.77
2023-03-16T01:41:07.627Z,3.40
2023-03-16T01:43:37.475Z,3.25
2023-03-16T01:46:06.716Z,3.00
2023-03-16T01:48:37.416Z,3.63
2023-03-16T01:51:11.269Z,3.20
2023-03-16T01:53:41.640Z,3.30
2023-03-16T01:56:10.697Z,3.63
2023-03-16T01:58:38.336Z,3.70
2023-03-16T02:01:05.463Z,3.30
2023-03-16T02:03:35.612Z,3.40
2023-03-16T02:06:12.964Z,3.45
2023-03-16T02:08:40.335Z,3.05
2023-03-16T02:11:08.967Z,3.38
2023-03-16T02:13:39.149Z,3.20
2023-03-16T02:16:08.495Z,3.20
2023-03-16T02:18:35.556Z,3.63
2023-03-16T02:21:13.401Z,3.20
2023-03-16T02:23:39.870Z,3.50
2023-03-16T02:26:15.448Z,3.53
2023-03-16T02:28:48.026Z,3.37
2023-03-16T02:31:16.896Z,3.92
2023-03-16T02:33:44.942Z,4.25
2023-03-16T02:36:14.610Z,3.50
2023-03-16T02:38:41.472Z,3.30
2023-03-16T02:41:17.419Z,3.70
2023-03-16T02:43:58.428Z,3.72
2023-03-16T02:46:27.904Z,3.45
2023-03-16T02:49:11.455Z,3.72
2023-03-16T02:51:37.790Z,3.58
2023-03-16T02:54:04.169Z,3.10
2023-03-16T02:56:30.564Z,3.45
2023-03-16T02:58:57.818Z,2.97
2023-03-16T03:01:24.458Z,3.50
2023-03-16T03:03:50.864Z,3.28
2023-03-16T03:06:17.233Z,3.77
2023-03-16T03:08:43.650Z,3.45
2023-03-16T03:11:10.260Z,3.10
2023-03-16T03:13:39.059Z,3.47
2023-03-16T03:16:05.883Z,3.53
2023-03-16T03:18:32.395Z,3.27
2023-03-16T03:20:58.726Z,3.20
2023-03-16T03:23:25.389Z,3.17
2023-03-16T03:25:51.797Z,3.42
2023-03-16T03:28:18.214Z,3.42
2023-03-16T03:30:44.638Z,3.87
2023-03-16T03:33:11.039Z,3.67
2023-03-16T03:35:37.546Z,3.28
2023-03-16T03:38:03.949Z,3.22
2023-03-16T03:40:30.757Z,3.38
2023-03-16T03:42:57.335Z,3.37
2023-03-16T03:45:23.693Z,3.50
2023-03-16T03:47:50.070Z,3.10
2023-03-16T03:50:16.883Z,3.45
2023-03-16T03:52:43.330Z,3.58
2023-03-16T03:55:10.768Z,3.77
2023-03-16T03:57:37.269Z,2.97
2023-03-16T04:00:09.623Z,3.20
2023-03-16T04:02:36.075Z,3.28
2023-03-16T04:05:02.581Z,3.50
2023-03-16T04:07:28.949Z,4.00
2023-03-16T04:09:55.378Z,3.63
2023-03-16T04:12:21.913Z,3.65
2023-03-16T04:14:48.409Z,3.10
2023-03-16T04:17:14.815Z,3.60
2023-03-16T04:19:41.176Z,3.30
2023-03-16T04:22:07.681Z,3.63
2023-03-16T04:24:34.375Z,3.70
2023-03-16T04:27:02.715Z,4.03
2023-03-16T04:29:29.069Z,3.53
2023-03-16T04:31:55.455Z,3.20
2023-03-16T04:34:25.676Z,2.55
2023-03-16T04:36:52.866Z,3.00
2023-03-16T04:39:20.495Z,3.60
2023-03-16T04:41:46.928Z,3.97
2023-03-16T04:44:13.574Z,3.23
2023-03-16T04:46:40.767Z,3.28
2023-03-16T04:49:09.480Z,3.40
2023-03-16T04:51:37.719Z,3.03
2023-03-16T04:54:05.072Z,2.78
2023-03-16T04:56:31.548Z,3.63
2023-03-16T04:58:57.978Z,3.08
2023-03-16T05:01:24.457Z,3.10
2023-03-16T05:03:50.874Z,3.50
2023-03-16T05:06:17.253Z,3.30
2023-03-16T05:08:43.608Z,3.10
2023-03-16T05:11:10.478Z,3.08
2023-03-16T05:13:36.869Z,3.42
2023-03-16T05:16:03.466Z,3.45
2023-03-16T05:18:29.848Z,3.20
2023-03-16T05:20:56.908Z,3.30
2023-03-16T05:23:23.976Z,2.95
2023-03-16T05:25:50.849Z,2.85
2023-03-16T05:28:17.675Z,3.05
2023-03-16T05:30:45.295Z,2.78
2023-03-16T05:33:11.966Z,3.60
2023-03-16T05:35:38.482Z,2.90
2023-03-16T05:38:05.144Z,3.63
2023-03-16T05:40:32.995Z,3.00
2023-03-16T05:43:00.416Z,2.95
2023-03-16T05:45:27.500Z,2.80
2023-03-16T05:47:54.021Z,3.03
2023-03-16T05:50:20.627Z,3.10
2023-03-16T05:52:47.272Z,3.08
2023-03-16T05:55:15.398Z,2.95
2023-03-16T05:57:42.148Z,3.10
2023-03-16T06:00:14.421Z,2.97
2023-03-16T06:02:48.517Z,3.05
2023-03-16T06:05:16.399Z,2.80
2023-03-16T06:07:42.820Z,3.28
2023-03-16T06:10:10.289Z,2.53
2023-03-16T06:12:37.065Z,3.28
2023-03-16T06:15:08.425Z,2.70
2023-03-16T06:17:39.051Z,2.80
2023-03-16T06:20:11.270Z,3.03
2023-03-16T06:22:38.932Z,2.63
2023-03-16T06:25:05.807Z,2.80
2023-03-16T06:27:32.154Z,3.05
2023-03-16T06:29:58.602Z,2.65
2023-03-16T06:32:24.989Z,2.88
2023-03-16T06:34:51.383Z,2.97
2023-03-16T06:37:17.966Z,2.92
2023-03-16T06:39:44.689Z,2.80
2023-03-16T06:42:11.359Z,2.08
2023-03-16T06:44:37.964Z,2.17
2023-03-16T06:47:04.652Z,2.40
2023-03-16T06:49:31.214Z,3.10
2023-03-16T06:51:58.725Z,2.63
2023-03-16T06:54:25.072Z,2.53
2023-03-16T06:56:52.272Z,2.28
2023-03-16T06:59:18.640Z,2.27
2023-03-16T07:01:45.132Z,2.92
2023-03-16T07:04:12.697Z,2.60
2023-03-16T07:06:39.239Z,2.20
2023-03-16T07:09:05.870Z,2.50
2023-03-16T07:11:32.562Z,2.47
2023-03-16T07:13:59.029Z,2.58
2023-03-16T07:16:25.725Z,2.10
2023-03-16T07:18:52.260Z,2.47
2023-03-16T07:21:18.807Z,2.10
2023-03-16T07:23:46.011Z,2.43
2023-03-16T07:26:12.420Z,2.40
2023-03-16T07:28:39.457Z,3.00
2023-03-16T07:31:07.009Z,2.25
2023-03-16T07:33:34.076Z,2.25
2023-03-16T07:36:04.230Z,2.50
2023-03-16T07:38:32.434Z,2.17
2023-03-16T07:41:01.541Z,2.22
2023-03-16T07:43:29.216Z,2.33
2023-03-16T07:45:55.719Z,2.58
2023-03-16T07:48:22.538Z,2.60
2023-03-16T07:50:49.419Z,3.03
2023-03-16T07:53:16.428Z,2.80
2023-03-16T07:55:43.467Z,2.40
2023-03-16T07:58:11.033Z,2.28
2023-03-16T08:00:38.104Z,2.40
2023-03-16T08:03:04.868Z,2.08
2023-03-16T08:05:34.365Z,2.58
2023-03-16T08:08:03.671Z,2.55
2023-03-16T08:10:31.254Z,2.33
2023-03-16T08:12:58.042Z,2.50
2023-03-16T08:15:24.901Z,2.30
2023-03-16T08:17:52.353Z,2.70
2023-03-16T08:20:18.943Z,2.13
2023-03-16T08:22:46.406Z,2.40
2023-03-16T08:25:14.546Z,2.20
2023-03-16T08:27:42.738Z,2.03
2023-03-16T08:30:11.736Z,2.33
2023-03-16T08:32:39.672Z,2.60
2023-03-16T08:35:09.525Z,2.75
2023-03-16T08:37:36.174Z,2.57
2023-03-16T08:40:04.023Z,2.90
2023-03-16T08:42:30.706Z,2.15
2023-03-16T08:44:57.411Z,2.72
2023-03-16T08:47:24.478Z,2.40
2023-03-16T08:49:50.950Z,2.07
2023-03-16T08:52:17.303Z,2.30
2023-03-16T08:54:56.166Z,2.65
2023-03-16T08:57:28.225Z,2.10
2023-03-16T08:59:54.857Z,2.30
2023-03-16T09:02:22.108Z,2.50
2023-03-16T09:04:49.854Z,2.22
2023-03-16T09:07:16.893Z,2.67
2023-03-16T09:09:43.920Z,2.35
2023-03-16T09:12:10.724Z,2.70
2023-03-16T09:14:38.439Z,2.23
2023-03-16T09:17:07.639Z,2.33
2023-03-16T09:19:50.133Z,2.35
2023-03-16T09:22:18.358Z,2.45
2023-03-16T09:24:44.810Z,2.35
2023-03-16T09:27:12.037Z,2.80
2023-03-16T09:29:38.499Z,2.60
2023-03-16T09:32:05.301Z,2.60
2023-03-16T09:34:33.296Z,2.35
2023-03-16T09:37:00.489Z,2.25
2023-03-16T09:39:27.201Z,2.23
2023-03-16T09:42:01.561Z,2.58
2023-03-16T09:44:33.857Z,2.40
2023-03-16T09:47:02.948Z,2.63
2023-03-16T09:49:37.668Z,2.22
2023-03-16T09:52:28.057Z,2.33
2023-03-16T09:55:05.364Z,2.83
2023-03-16T09:57:35.613Z,2.45
2023-03-16T10:00:39.394Z,2.47
2023-03-16T10:03:08.521Z,2.78
2023-03-16T10:05:37.014Z,2.50
2023-03-16T10:08:20.609Z,2.60
2023-03-16T10:11:11.729Z,2.20
2023-03-16T10:13:54.800Z,2.25
2023-03-16T10:16:30.647Z,2.50
2023-03-16T10:19:08.801Z,2.67
2023-03-16T10:21:39.607Z,1.90
2023-03-16T10:24:19.204Z,2.45
2023-03-16T10:26:55.096Z,2.05
2023-03-16T10:29:21.462Z,2.30
2023-03-16T10:31:48.733Z,2.23
2023-03-16T10:34:15.352Z,2.10
2023-03-16T10:36:44.846Z,1.95
2023-03-16T10:39:14.013Z,2.60
2023-03-16T10:41:45.348Z,2.38
2023-03-16T10:44:17.064Z,2.23
2023-03-16T10:46:48.510Z,2.80
2023-03-16T10:49:25.768Z,1.92
2023-03-16T10:51:54.473Z,2.28
2023-03-16T10:54:35.583Z,2.75
2023-03-16T10:57:30.777Z,2.20
2023-03-16T11:00:10.398Z,2.50
2023-03-16T11:02:36.815Z,1.55
2023-03-16T11:05:13.605Z,1.83
2023-03-16T11:07:48.243Z,2.20
2023-03-16T11:10:46.038Z,2.10
2023-03-16T11:13:21.073Z,1.90
2023-03-16T11:16:17.712Z,1.90
2023-03-16T11:18:48.562Z,2.13
2023-03-16T11:21:39.499Z,2.10
2023-03-16T11:24:14.113Z,1.60
2023-03-16T11:26:42.949Z,1.73
2023-03-16T11:29:21.550Z,2.17
2023-03-16T11:32:02.036Z,1.90
2023-03-16T11:34:31.891Z,2.22
2023-03-16T11:37:28.851Z,1.60
2023-03-16T11:40:14.233Z,2.10
2023-03-16T11:42:49.174Z,2.05
2023-03-16T11:45:27.428Z,1.95
2023-03-16T11:48:07.741Z,1.83
2023-03-16T11:50:50.447Z,1.60
2023-03-16T11:53:22.710Z,2.05
2023-03-16T11:56:10.562Z,1.80
2023-03-16T11:59:16.114Z,1.77
2023-03-16T12:02:05.914Z,1.75
2023-03-16T12:04:36.700Z,1.80
2023-03-16T12:07:27.875Z,1.90
2023-03-16T12:10:11.677Z,1.90
2023-03-16T12:13:03.142Z,2.15
2023-03-16T12:15:32.912Z,2.33
2023-03-16T12:18:23.843Z,2.20
2023-03-16T12:20:56.957Z,1.63
2023-03-16T12:23:34.465Z,2.33
2023-03-16T12:26:03.415Z,2.08
2023-03-16T12:28:32.123Z,1.90
2023-03-16T12:31:09.387Z,1.83
2023-03-16T12:33:48.493Z,1.92
2023-03-16T12:36:42.469Z,2.00
2023-03-16T12:39:17.489Z,1.60
2023-03-16T12:42:10.024Z,1.70
2023-03-16T12:44:48.021Z,1.40
2023-03-16T12:47:17.933Z,1.20
2023-03-16T12:49:44.590Z,1.88
2023-03-16T12:52:13.527Z,1.15
2023-03-16T12:55:14.001Z,1.67
2023-03-16T12:57:42.773Z,2.00
2023-03-16T13:00:12.960Z,1.80
2023-03-16T13:02:44.945Z,1.65
2023-03-16T13:05:17.988Z,1.50
2023-03-16T13:07:50.130Z,2.17
2023-03-16T13:10:20.603Z,1.60
2023-03-16T13:12:47.797Z,1.50
2023-03-16T13:15:20.357Z,1.38
2023-03-16T13:17:50.051Z,1.27
2023-03-16T13:20:31.841Z,1.23
2023-03-16T13:23:18.107Z,1.10
2023-03-16T13:25:58.373Z,1.00
2023-03-16T13:28:30.173Z,1.02
2023-03-16T13:30:56.962Z,1.48
2023-03-16T13:33:26.207Z,1.00
2023-03-16T13:35:56.037Z,1.07
2023-03-16T13:38:28.404Z,0.90
2023-03-16T13:41:10.055Z,1.10
2023-03-16T13:43:41.677Z,1.10
2023-03-16T13:46:21.198Z,1.38
2023-03-16T13:48:48.837Z,0.90
2023-03-16T13:51:20.723Z,0.93
2023-03-16T13:53:48.214Z,0.98
2023-03-16T13:56:28.789Z,0.90
2023-03-16T13:58:58.490Z,1.63
2023-03-16T14:01:31.020Z,1.23
2023-03-16T14:04:08.385Z,1.00
2023-03-16T14:06:35.779Z,0.90
2023-03-16T14:09:05.889Z,0.90
2023-03-16T14:11:32.320Z,1.20
2023-03-16T14:14:00.471Z,1.07
2023-03-16T14:16:29.665Z,1.40
2023-03-16T14:19:06.516Z,1.40
2023-03-16T14:21:37.033Z,1.00
2023-03-16T14:24:06.708Z,1.67
2023-03-16T14:26:41.631Z,1.13
2023-03-16T14:29:16.502Z,0.82
2023-03-16T14:31:43.134Z,0.80
2023-03-16T14:34:31.205Z,1.35
2023-03-16T14:37:09.285Z,0.93
2023-03-16T14:39:35.930Z,0.90
2023-03-16T14:42:05.045Z,0.73
2023-03-16T14:44:34.586Z,0.98
2023-03-16T14:47:03.821Z,0.93
2023-03-16T14:49:36.406Z,0.73
2023-03-16T14:52:07.251Z,0.80
2023-03-16T14:54:33.731Z,0.73
2023-03-16T14:57:05.666Z,0.68
2023-03-16T14:59:33.423Z,0.93
2023-03-16T15:02:03.020Z,1.30
2023-03-16T15:04:33.644Z,0.77
2023-03-16T15:07:01.649Z,0.90
2023-03-16T15:09:44.594Z,0.88
2023-03-16T15:12:16.508Z,0.90
2023-03-16T15:15:01.663Z,1.13
2023-03-16T15:17:28.155Z,0.83
2023-03-16T15:19:54.535Z,1.08
2023-03-16T15:22:37.758Z,0.95
2023-03-16T15:25:21.112Z,1.23
2023-03-16T15:27:47.995Z,0.77
2023-03-16T15:30:24.370Z,0.70
2023-03-16T15:32:50.797Z,0.80
2023-03-16T15:35:18.019Z,0.70
2023-03-16T15:37:45.083Z,0.93
2023-03-16T15:40:26.568Z,0.90
2023-03-16T15:42:53.362Z,0.83
2023-03-16T15:45:22.068Z,1.00
2023-03-16T15:47:53.078Z,0.90
2023-03-16T15:50:24.556Z,0.80
2023-03-16T15:52:59.465Z,0.98
2023-03-16T15:55:47.088Z,0.83
2023-03-16T15:58:20.285Z,1.00
2023-03-16T16:00:48.729Z,0.73
2023-03-16T16:03:15.353Z,0.63
2023-03-16T16:05:41.826Z,0.80
2023-03-16T16:08:08.334Z,0.70
2023-03-16T16:10:34.813Z,0.80
2023-03-16T16:13:02.070Z,0.70
2023-03-16T16:15:33.749Z,0.70
2023-03-16T16:18:20.309Z,1.10
2023-03-16T16:20:48.247Z,0.70
2023-03-16T16:23:14.703Z,0.60
2023-03-16T16:25:41.951Z,0.98
2023-03-16T16:28:18.546Z,0.95
2023-03-16T16:30:46.066Z,0.95
2023-03-16T16:33:25.981Z,0.90
2023-03-16T16:35:54.152Z,0.70
2023-03-16T16:38:21.916Z,0.95
2023-03-16T16:40:49.337Z,1.05
2023-03-16T16:43:29.492Z,0.82
2023-03-16T16:45:56.259Z,0.70
2023-03-16T16:48:31.746Z,1.10
2023-03-16T16:50:59.980Z,1.33
2023-03-16T16:53:26.317Z,1.10
2023-03-16T16:55:53.399Z,1.00
2023-03-16T16:58:24.621Z,1.23
2023-03-16T17:00:58.805Z,0.90
2023-03-16T17:03:28.271Z,1.10
2023-03-16T17:05:57.840Z,0.90
2023-03-16T17:08:25.431Z,0.88
2023-03-16T17:10:53.152Z,1.00
2023-03-16T17:13:41.738Z,0.95
2023-03-16T17:16:16.660Z,1.30
2023-03-16T17:18:46.339Z,1.40
2023-03-16T17:21:15.892Z,1.48
2023-03-16T17:23:42.649Z,1.30
2023-03-16T17:26:20.871Z,1.88
2023-03-16T17:29:03.957Z,0.95
2023-03-16T17:31:37.824Z,1.70
2023-03-16T17:34:16.653Z,1.38
2023-03-16T17:36:43.664Z,1.33
2023-03-16T17:39:27.581Z,0.90
2023-03-16T17:41:58.235Z,1.10
2023-03-16T17:44:26.808Z,1.00
2023-03-16T17:46:54.248Z,1.10
2023-03-16T17:49:22.165Z,0.80
2023-03-16T17:51:48.929Z,1.00
2023-03-16T17:54:15.477Z,1.20
2023-03-16T17:56:42.410Z,1.35
2023-03-16T17:59:17.485Z,1.15
2023-03-16T18:01:46.048Z,1.00
2023-03-16T18:04:17.552Z,1.08
2023-03-16T18:06:46.963Z,1.35
2023-03-16T18:09:15.717Z,1.35
2023-03-16T18:11:46.586Z,1.25
2023-03-16T18:14:21.906Z,1.10
2023-03-16T18:16:48.333Z,1.25
2023-03-16T18:19:23.724Z,1.80
2023-03-16T18:21:50.166Z,1.58
2023-03-16T18:24:16.574Z,1.42
2023-03-16T18:26:43.251Z,1.47
2023-03-16T18:29:11.125Z,1.48
2023-03-16T18:31:37.564Z,1.60
2023-03-16T18:34:06.396Z,1.55
2023-03-16T18:36:36.148Z,1.90
2023-03-16T18:39:05.796Z,1.70
2023-03-16T18:41:34.872Z,1.50
2023-03-16T18:44:13.951Z,1.60
2023-03-16T18:46:40.446Z,1.80
2023-03-16T18:49:22.991Z,2.22
2023-03-16T18:51:52.289Z,2.37
2023-03-16T18:54:23.517Z,2.08
2023-03-16T18:56:50.133Z,2.40
2023-03-16T18:59:16.690Z,2.30
2023-03-16T19:01:44.733Z,2.58
2023-03-16T19:04:21.483Z,1.73
2023-03-16T19:06:48.601Z,2.08
2023-03-16T19:09:21.266Z,2.20
2023-03-16T19:11:48.452Z,2.38
2023-03-16T19:14:27.180Z,2.38
2023-03-16T19:16:55.100Z,2.20
2023-03-16T19:19:23.203Z,1.80
2023-03-16T19:21:56.326Z,2.00
2023-03-16T19:24:31.730Z,1.60
2023-03-16T19:26:58.359Z,1.65
2023-03-16T19:29:35.107Z,1.33
2023-03-16T19:32:02.171Z,1.17
2023-03-16T19:34:28.688Z,1.50
2023-03-16T19:36:55.156Z,1.45
2023-03-16T19:39:21.653Z,1.30
2023-03-16T19:41:56.387Z,1.20
2023-03-16T19:44:25.376Z,0.90
2023-03-16T19:46:52.229Z,1.20
2023-03-16T19:49:24.117Z,1.25
2023-03-16T19:51:52.708Z,0.98
2023-03-16T19:54:33.694Z,1.70
2023-03-16T19:57:07.176Z,1.15
2023-03-16T19:59:35.076Z,1.20
2023-03-16T20:02:01.591Z,1.42
2023-03-16T20:04:28.095Z,1.38
2023-03-16T20:06:54.488Z,2.00
2023-03-16T20:09:22.164Z,1.75
2023-03-16T20:11:49.190Z,1.38
2023-03-16T20:14:26.673Z,1.38
2023-03-16T20:16:53.483Z,1.75
2023-03-16T20:19:22.170Z,1.37
2023-03-16T20:21:49.047Z,1.40
2023-03-16T20:24:20.773Z,1.70
2023-03-16T20:26:49.608Z,1.50
2023-03-16T20:29:29.191Z,1.70
2023-03-16T20:31:56.132Z,2.27
2023-03-16T20:34:26.539Z,2.00
2023-03-16T20:36:53.831Z,1.90
2023-03-16T20:39:20.243Z,1.80
2023-03-16T20:41:46.997Z,1.83
2023-03-16T20:44:17.972Z,1.43
2023-03-16T20:46:44.979Z,1.27
2023-03-16T20:49:32.655Z,1.83
2023-03-16T20:51:59.297Z,1.20
2023-03-16T20:54:25.762Z,1.42
2023-03-16T20:56:52.302Z,1.43
2023-03-16T20:59:23.696Z,1.25
2023-03-16T21:01:51.709Z,1.48
2023-03-16T21:04:27.522Z,1.60
2023-03-16T21:06:55.695Z,1.40
2023-03-16T21:09:22.252Z,1.07
2023-03-16T21:11:49.410Z,1.55
2023-03-16T21:14:22.565Z,1.10
2023-03-16T21:16:49.406Z,1.48
2023-03-16T21:19:22.809Z,1.50
2023-03-16T21:21:49.603Z,1.40
2023-03-16T21:24:16.043Z,1.40
2023-03-16T21:26:43.759Z,1.60
2023-03-16T21:29:17.951Z,1.50
2023-03-16T21:31:44.422Z,1.40
2023-03-16T21:34:23.797Z,1.20
2023-03-16T21:36:50.581Z,1.70
2023-03-16T21:39:22.532Z,1.50
2023-03-16T21:41:50.538Z,1.33
2023-03-16T21:44:17.400Z,1.60
2023-03-16T21:46:43.862Z,1.80
2023-03-16T21:49:11.816Z,1.40
2023-03-16T21:51:38.268Z,1.52
2023-03-16T21:54:07.893Z,1.33
2023-03-16T21:56:36.020Z,1.45
2023-03-16T21:59:02.437Z,1.40
2023-03-16T22:01:31.559Z,1.30
2023-03-16T22:04:02.796Z,1.00
2023-03-16T22:06:29.666Z,1.40
2023-03-16T22:08:57.534Z,1.70
2023-03-16T22:11:29.583Z,1.30
2023-03-16T22:13:57.881Z,1.30
2023-03-16T22:16:27.864Z,1.50
2023-03-16T22:18:56.505Z,1.20
2023-03-16T22:21:26.250Z,1.50
2023-03-16T22:23:53.331Z,1.57
2023-03-16T22:26:22.494Z,1.33
2023-03-16T22:28:50.827Z,1.55
2023-03-16T22:31:20.893Z,1.20
2023-03-16T22:33:48.668Z,1.75
2023-03-16T22:36:20.570Z,1.80
2023-03-16T22:38:59.377Z,1.38
2023-03-16T22:41:26.064Z,1.65
2023-03-16T22:43:52.649Z,1.88
2023-03-16T22:46:23.343Z,1.60
2023-03-16T22:48:51.377Z,1.40
2023-03-16T22:51:28.316Z,1.60
2023-03-16T22:53:59.733Z,1.50
2023-03-16T22:56:27.232Z,1.23
2023-03-16T22:58:58.511Z,1.67
2023-03-16T23:01:45.179Z,1.80
2023-03-16T23:04:15.450Z,1.50
2023-03-16T23:06:43.275Z,1.60
2023-03-16T23:09:13.617Z,1.75
2023-03-16T23:11:43.492Z,1.63
2023-03-16T23:14:24.095Z,1.60
2023-03-16T23:16:52.518Z,1.70
2023-03-16T23:19:29.916Z,1.95
2023-03-16T23:21:59.890Z,1.58
2023-03-16T23:24:26.397Z,1.58
2023-03-16T23:26:54.214Z,1.80
2023-03-16T23:29:22.469Z,1.88
2023-03-16T23:31:49.532Z,1.90
2023-03-16T23:34:19.304Z,2.05
2023-03-16T23:36:46.048Z,1.70
2023-03-16T23:39:12.473Z,1.70
2023-03-16T23:41:42.999Z,1.83
2023-03-16T23:44:15.726Z,2.03
2023-03-16T23:46:42.132Z,1.92
2023-03-16T23:49:21.509Z,1.85
2023-03-16T23:51:48.294Z,1.90
2023-03-16T23:54:23.776Z,1.95
2023-03-16T23:56:50.889Z,2.13
2023-03-16T23:59:17.430Z,1.98
